deformed-offering

Nearby METAR Reports

 

KNUQ - Moffett Nas/Mtn, California, USA
Distance from station: N 9mi, 14km
Updated: Sat, 23-Feb-2019 3:56pm PST
Mostly Cloudy
Mostly Cloudy
 Wind from N
Wind: N 13 mph , 20 km/h
Temperature: 54°F , 12°C
Dew Point: 43°F , 6°C
Humidity: 67%
Barometer: 30.30 inHg , 1026.1 hPa
Clouds: Mostly Cloudy
Visibility: 10 miles , 16 km
Cloud details: Mostly Cloudy 11000 ft
2019/02/23 23:56 KNUQ 232356Z 35011KT 10SM BKN110 12/06 A3030 RMK AO2 SLP262 T01220056 10139 20106 56006 $
KSJC - San Jose, California, USA
Distance from station: NE 9mi, 14km
Updated: Sat, 23-Feb-2019 3:53pm PST
Overcast
Overcast
 Wind from NNW
Wind: NNW 9 mph , 15 km/h
Temperature: 55°F , 13°C
Dew Point: 43°F , 6°C
Humidity: 63%
Barometer: 30.28 inHg , 1025.4 hPa
Clouds: Overcast
Visibility: 10 miles , 16 km
Cloud details: Few Clouds 3500 ft
Mostly Cloudy 13000 ft
Overcast 20000 ft
2019/02/23 23:53 KSJC 232353Z 33008KT 10SM FEW035 BKN130 OVC200 13/06 A3028 RMK AO2 SLP254 T01280061 10144 20089 56007 $
 
KRHV - San Jose/Reid, California, USA
Distance from station: ENE 12mi, 19km
Updated: Sat, 23-Feb-2019 3:51pm PST
Mostly Cloudy
Mostly Cloudy
 Wind from WNW
Wind: WNW 12 mph , 19 km/h
Temperature: 57°F , 14°C
Dew Point: 39°F , 4°C
Humidity: 51%
Barometer: 30.26 inHg , 1024.7 hPa
Clouds: Mostly Cloudy
Visibility: 10 miles , 16 km
Cloud details: Mostly Cloudy 12000 ft
2019/02/23 23:51 KRHV 232351Z 30010KT 10SM BKN120 14/04 A3026
KPAO - Palo Alto, California, USA
Distance from station: NNW 14mi, 23km
Updated: Sat, 23-Feb-2019 3:47pm PST
Mostly Cloudy
Mostly Cloudy
 Wind from NNW
Wind: NNW 12 mph , 19 km/h
Barometer: 30.31 inHg , 1026.4 hPa
Clouds: Mostly Cloudy
Visibility: 10 miles , 16 km
Cloud details: Few Clouds 3000 ft
Mostly Cloudy 12000 ft
2019/02/23 23:47 KPAO 232347Z 34010KT 10SM FEW030 BKN120 A3031 RMK WIND ESTIMATED
 
KSQL - San Carlos Airpo, California, USA
Distance from station: NW 21mi, 34km
Updated: Sat, 23-Feb-2019 3:53pm PST
Mostly Cloudy
Mostly Cloudy
 Wind from W
Wind: W 8 mph , 13 km/h
Temperature: 55°F , 13°C
Dew Point: 41°F , 5°C
Humidity: 59%
Barometer: 30.29 inHg , 1025.7 hPa
Clouds: Mostly Cloudy
Visibility: 10 miles , 16 km
Cloud details: Mostly Cloudy 11000 ft
2019/02/23 23:53 KSQL 232353Z 27007KT 10SM BKN110 13/05 A3029
KE16 - San Martin, California, USA
Distance from station: ESE 27mi, 43km
Updated: Sat, 23-Feb-2019 4:15pm PST
Clear
Clear
 Wind from SW
Wind: SW 7 mph , 11 km/h
Temperature: 57°F , 14°C
Dew Point: 30°F , -1°C
Humidity: 36%
Barometer: 30.29 inHg , 1025.7 hPa
Clouds: Clear
Visibility: 10 miles , 16 km
2019/02/24 00:15 KE16 240015Z AUTO 22006KT 10SM CLR 14/M01 A3029 RMK AO2
 
KWVI - Watsonville, California, USA
Distance from station: SSE 27mi, 44km
Updated: Sat, 23-Feb-2019 3:53pm PST
Clear
Clear
 Wind from WSW
Wind: WSW 8 mph , 13 km/h
Temperature: 54°F , 12°C
Dew Point: 41°F , 5°C
Humidity: 63%
Barometer: 30.30 inHg , 1026.1 hPa
Clouds: Clear
Visibility: 10 miles , 16 km
2019/02/23 23:53 KWVI 232353Z AUTO 24007KT 10SM CLR 12/05 A3030 RMK AO2 SLP262 T01220050 10139 20083 56005
KHWD - Hayward, California, USA
Distance from station: N 28mi, 44km
Updated: Sat, 23-Feb-2019 3:54pm PST
Mostly Cloudy
Mostly Cloudy
 Wind from WNW
Wind: WNW 12 mph , 19 km/h
Temperature: 55°F , 13°C
Dew Point: 41°F , 5°C
Humidity: 59%
Barometer: 30.29 inHg , 1025.7 hPa
Clouds: Mostly Cloudy
Visibility: 10 miles , 16 km
Cloud details: Mostly Cloudy 12000 ft
2019/02/23 23:54 KHWD 232354Z 29010KT 10SM BKN120 13/05 A3029 RMK AO2 SLP268 T01280050 10144 20106 56007
 
KSFO - San Francisco, California, USA
Distance from station: NW 30mi, 49km
Updated: Sat, 23-Feb-2019 3:56pm PST
Mostly Cloudy
Mostly Cloudy
 Wind from W
Wind: W 14 mph , 22 km/h
Temperature: 54°F , 12°C
Dew Point: 39°F , 4°C
Humidity: 58%
Barometer: 30.29 inHg , 1025.7 hPa
Clouds: Mostly Cloudy
Visibility: 10 miles , 16 km
Cloud details: Few Clouds 2300 ft
Mostly Cloudy 11000 ft
Mostly Cloudy 18000 ft
2019/02/23 23:56 KSFO 232356Z 27012KT 10SM FEW023 BKN110 BKN180 12/04 A3029 RMK AO2 SLP258 T01170044 10133 20083 56006
KHAF - Half Moon Bay, California, USA
Distance from station: WNW 31mi, 50km
Updated: Wed, 13-Feb-2019 2:15pm PST
NOT Current
Light rain, Overcast
Light rain, Overcast
 Wind from S
Wind: S 33 mph , 54 km/h, Gust: 43 mph , 69 km/h
Temperature: 55°F , 13°C
Dew Point: 54°F , 12°C
Humidity: 94%
Barometer: 29.54 inHg , 1000.3 hPa
Summary: Light Rain
Clouds: Overcast
Visibility: 3/4 mile , 1.2 km
Cloud details: Overcast 700 ft
2019/02/13 22:15 KHAF 132215Z AUTO 17029G37KT 3/4SM -RA OVC007 13/12 A2954 RMK AO2
 
KOAK - Oakland, California, USA
Distance from station: NNW 31mi, 50km
Updated: Sat, 23-Feb-2019 3:53pm PST
Mostly Cloudy
Mostly Cloudy
 Wind from W
Wind: W 9 mph , 15 km/h
Temperature: 54°F , 12°C
Dew Point: 41°F , 5°C
Humidity: 63%
Barometer: 30.30 inHg , 1026.1 hPa
Clouds: Mostly Cloudy
Visibility: 10 miles , 16 km
Cloud details: Few Clouds 2000 ft
Mostly Cloudy 12000 ft
Mostly Cloudy 20000 ft
2019/02/23 23:53 KOAK 232353Z 27008KT 10SM FEW020 BKN120 BKN200 12/05 A3030 RMK AO2 SLP260 T01220050 10139 20094 56007
KLVK - Livermore, California, USA
Distance from station: NNE 31mi, 51km
Updated: Sat, 23-Feb-2019 3:53pm PST
Mostly Cloudy
Mostly Cloudy
 Wind from NW
Wind: NW 5 mph , 7 km/h
Temperature: 55°F , 13°C
Dew Point: 37°F , 3°C
Humidity: 51%
Barometer: 30.27 inHg , 1025.1 hPa
Clouds: Mostly Cloudy
Visibility: 10 miles , 16 km
Cloud details: Mostly Cloudy 12000 ft
2019/02/23 23:53 KLVK 232353Z 32004KT 10SM BKN120 13/03 A3027 RMK AO2 SLP251 T01280028 10139 20061 56009
 
KCVH - Hollister Muni, California, USA
Distance from station: SE 42mi, 68km
Updated: Sat, 23-Feb-2019 4:15pm PST
Clear
Clear
 Wind from W
Wind: W 9 mph , 15 km/h
Temperature: 57°F , 14°C
Dew Point: 36°F , 2°C
Humidity: 44%
Barometer: 30.28 inHg , 1025.4 hPa
Clouds: Clear
Visibility: 10 miles , 16 km
2019/02/24 00:15 KCVH 240015Z AUTO 26008KT 10SM CLR 14/02 A3028 RMK A01
KSNS - Salinas, California, USA
Distance from station: SSE 48mi, 77km
Updated: Sat, 23-Feb-2019 3:53pm PST
Clear
Clear
 Wind from WNW
Wind: WNW 10 mph , 17 km/h
Temperature: 55°F , 13°C
Dew Point: 36°F , 2°C
Humidity: 47%
Barometer: 30.29 inHg , 1025.7 hPa
Clouds: Clear
Visibility: 10 miles , 16 km
2019/02/23 23:53 KSNS 232353Z 30009KT 10SM CLR 13/02 A3029 RMK AO2 SLP268 T01330022 10156 20078 56005 $
 
KMRY - Monterey, California, USA
Distance from station: SSE 49mi, 78km
Updated: Sat, 23-Feb-2019 3:54pm PST
Clear
Clear
 Wind from WNW
Wind: WNW 6 mph , 9 km/h
Temperature: 52°F , 11°C
Dew Point: 39°F , 4°C
Humidity: 62%
Barometer: 30.31 inHg , 1026.4 hPa
Clouds: Clear
Visibility: 10 miles , 16 km
2019/02/23 23:54 KMRY 232354Z 29005KT 10SM CLR 11/04 A3031 RMK AO2 SLP276 T01110044 10117 20089 56005
KCCR - Concord, California, USA
Distance from station: N 50mi, 81km
Updated: Sat, 23-Feb-2019 3:53pm PST
Few Clouds
Few Clouds
 Wind from calm
Wind: Calm
Temperature: 57°F , 14°C
Dew Point: 36°F , 2°C
Humidity: 44%
Barometer: 30.28 inHg , 1025.4 hPa
Clouds: Few Clouds
Visibility: 10 miles , 16 km
Cloud details: Few Clouds 12000 ft
2019/02/23 23:53 KCCR 232353Z 00000KT 10SM FEW120 14/02 A3028 RMK AO2 SLP240 T01440022 10150 20083 56010
deformed-offering